createdAt,value
2018-04-01T00:00:03.649Z,10.77
2018-04-01T00:04:36.762Z,12.93
2018-04-01T00:09:09.560Z,13.60
2018-04-01T00:13:42.903Z,10.53
2018-04-01T00:18:15.700Z,10.57
2018-04-01T00:22:48.582Z,15.10
2018-04-01T00:27:22.084Z,12.67
2018-04-01T00:31:54.857Z,11.47
2018-04-01T00:36:28.153Z,7.93
2018-04-01T00:41:00.942Z,18.63
2018-04-01T00:45:33.713Z,9.23
2018-04-01T00:50:06.433Z,16.03
2018-04-01T00:54:39.192Z,11.40
2018-04-01T00:59:12.730Z,13.33
2018-04-01T01:03:45.508Z,18.23
2018-04-01T01:08:18.280Z,20.83
2018-04-01T01:12:51.000Z,21.50
2018-04-01T01:17:25.106Z,17.13
2018-04-01T01:21:57.914Z,10.27
2018-04-01T01:26:31.435Z,11.03
2018-04-01T01:31:05.532Z,9.47
2018-04-01T01:35:38.507Z,10.30
2018-04-01T01:40:11.265Z,8.53
2018-04-01T01:44:44.027Z,9.63
2018-04-01T01:49:16.778Z,9.60
2018-04-01T01:53:49.598Z,10.03
2018-04-01T01:58:22.450Z,9.30
2018-04-01T02:02:55.974Z,9.47
2018-04-01T02:07:28.805Z,11.03
2018-04-01T02:12:01.651Z,9.37
2018-04-01T02:16:35.204Z,12.13
2018-04-01T02:21:07.963Z,9.77
2018-04-01T02:25:42.193Z,12.87
2018-04-01T02:30:15.727Z,11.20
2018-04-01T02:34:48.504Z,11.03
2018-04-01T02:39:22.122Z,9.80
2018-04-01T02:43:56.329Z,10.23
2018-04-01T02:48:29.102Z,10.67
2018-04-01T02:53:01.859Z,11.40
2018-04-01T02:57:34.650Z,11.17
2018-04-01T03:02:08.260Z,11.57
2018-04-01T03:06:42.490Z,12.80
2018-04-01T03:11:15.317Z,12.80
2018-04-01T03:15:48.064Z,14.13
2018-04-01T03:20:20.895Z,13.20
2018-04-01T03:24:53.634Z,14.50
2018-04-01T03:29:26.421Z,13.37
2018-04-01T03:33:59.211Z,15.20
2018-04-01T03:38:31.979Z,14.00
2018-04-01T03:43:04.890Z,14.27
2018-04-01T03:47:37.673Z,13.87
2018-04-01T03:52:10.436Z,15.50
2018-04-01T03:56:43.272Z,13.73
2018-04-01T04:01:15.986Z,14.83
2018-04-01T04:05:48.788Z,14.70
2018-04-01T04:10:21.663Z,15.80
2018-04-01T04:14:54.432Z,15.37
2018-04-01T04:19:27.188Z,14.33
2018-04-01T04:24:00.069Z,16.87
2018-04-01T04:28:32.866Z,18.20
2018-04-01T04:33:05.781Z,18.03
2018-04-01T04:37:38.680Z,18.30
2018-04-01T04:42:11.547Z,16.97
2018-04-01T04:46:44.844Z,12.77
2018-04-01T04:51:18.364Z,14.37
2018-04-01T04:55:52.228Z,15.30
2018-04-01T05:00:26.522Z,17.23
2018-04-01T05:04:59.510Z,15.77
2018-04-01T05:09:33.188Z,19.63
2018-04-01T05:14:06.068Z,19.17
2018-04-01T05:18:38.815Z,19.53
2018-04-01T05:23:12.645Z,19.63
2018-04-01T05:27:45.936Z,19.13
2018-04-01T05:32:18.664Z,18.67
2018-04-01T05:36:51.421Z,19.13
2018-04-01T05:41:24.172Z,20.53
2018-04-01T05:45:56.971Z,19.73
2018-04-01T05:50:30.308Z,21.27
2018-04-01T05:55:03.101Z,19.13
2018-04-01T05:59:35.867Z,18.90
2018-04-01T06:04:08.741Z,21.07
2018-04-01T06:08:43.004Z,19.03
2018-04-01T06:13:15.783Z,18.73
2018-04-01T06:17:48.916Z,19.20
2018-04-01T06:22:21.743Z,20.47
2018-04-01T06:26:54.497Z,18.60
2018-04-01T06:31:27.366Z,20.67
2018-04-01T06:36:00.921Z,16.97
2018-04-01T06:40:34.490Z,15.80
2018-04-01T06:45:08.710Z,16.33
2018-04-01T06:49:41.543Z,16.33
2018-04-01T06:54:14.276Z,12.10
2018-04-01T06:58:47.122Z,12.50
2018-04-01T07:03:20.737Z,12.50
2018-04-01T07:07:54.224Z,10.33
2018-04-01T07:12:27.064Z,11.47
2018-04-01T07:16:59.846Z,10.50
2018-04-01T07:21:33.335Z,10.93
2018-04-01T07:26:06.869Z,12.87
2018-04-01T07:30:40.432Z,17.57
2018-04-01T07:35:13.444Z,16.53
2018-04-01T07:39:46.210Z,22.83
2018-04-01T07:44:19.706Z,19.30
2018-04-01T07:48:53.246Z,17.83
2018-04-01T07:53:26.044Z,9.53
2018-04-01T07:57:58.767Z,9.07
2018-04-01T08:02:31.587Z,9.90
2018-04-01T08:07:04.304Z,9.73
2018-04-01T08:11:37.820Z,10.83
2018-04-01T08:16:11.344Z,13.37
2018-04-01T08:20:44.225Z,13.53
2018-04-01T08:25:17.741Z,15.90
2018-04-01T08:29:51.917Z,14.87
2018-04-01T08:34:24.696Z,18.30
2018-04-01T08:38:57.559Z,18.17
2018-04-01T08:43:31.186Z,16.57
2018-04-01T08:48:05.006Z,19.10
2018-04-01T08:52:37.815Z,21.03
2018-04-01T08:57:10.713Z,18.60
2018-04-01T09:01:43.514Z,19.03
2018-04-01T09:06:16.280Z,19.43
2018-04-01T09:10:49.036Z,18.47
2018-04-01T09:15:21.811Z,19.33
2018-04-01T09:19:54.543Z,19.13
2018-04-01T09:24:27.377Z,18.03
2018-04-01T09:29:00.890Z,20.97
2018-04-01T09:33:34.384Z,17.93
2018-04-01T09:38:07.151Z,17.53
2018-04-01T09:42:39.909Z,30.60
2018-04-01T09:47:12.718Z,31.70
2018-04-01T09:51:45.478Z,20.73
2018-04-01T09:56:18.660Z,19.83
2018-04-01T10:00:59.408Z,17.73
2018-04-01T10:05:33.344Z,22.47
2018-04-01T10:10:06.624Z,13.67
2018-04-01T10:14:39.877Z,13.60
2018-04-01T10:19:13.460Z,13.20
2018-04-01T10:23:46.764Z,14.50
2018-04-01T10:28:20.072Z,15.07
2018-04-01T10:32:53.347Z,13.63
2018-04-01T10:37:26.604Z,15.97
2018-04-01T10:41:59.864Z,15.50
2018-04-01T10:46:33.114Z,16.40
2018-04-01T10:51:06.574Z,16.80
2018-04-01T10:55:39.348Z,15.93
2018-04-01T11:00:12.063Z,15.37
2018-04-01T11:04:44.829Z,15.80
2018-04-01T11:09:17.587Z,16.83
2018-04-01T11:13:51.119Z,16.07
2018-04-01T11:18:24.486Z,16.53
2018-04-01T11:22:57.242Z,19.40
2018-04-01T11:27:29.958Z,18.80
2018-04-01T11:32:02.707Z,15.37
2018-04-01T11:36:36.348Z,15.70
2018-04-01T11:41:09.212Z,18.27
2018-04-01T11:45:42.008Z,17.30
2018-04-01T11:50:15.810Z,17.07
2018-04-01T11:54:49.340Z,18.10
2018-04-01T11:59:22.858Z,19.43
2018-04-01T12:03:56.400Z,19.10
2018-04-01T12:08:29.180Z,22.40
2018-04-01T12:13:01.963Z,20.73
2018-04-01T12:17:36.361Z,18.00
2018-04-01T12:22:09.108Z,17.00
2018-04-01T12:26:41.920Z,15.67
2018-04-01T12:31:14.998Z,16.53
2018-04-01T12:35:48.608Z,15.70
2018-04-01T12:40:22.135Z,15.23
2018-04-01T12:44:55.652Z,14.30
2018-04-01T12:49:29.053Z,13.70
2018-04-01T12:54:02.607Z,25.40
2018-04-01T12:58:35.465Z,16.27
2018-04-01T13:03:08.282Z,19.57
2018-04-01T13:07:41.046Z,18.27
2018-04-01T13:12:13.876Z,18.83
2018-04-01T13:16:46.677Z,19.43
2018-04-01T13:21:19.561Z,17.80
2018-04-01T13:25:52.664Z,19.30
2018-04-01T13:30:25.818Z,16.03
2018-04-01T13:34:59.794Z,13.50
2018-04-01T13:39:32.797Z,14.30
2018-04-01T13:44:05.610Z,13.77
2018-04-01T13:48:38.410Z,13.23
2018-04-01T13:53:11.201Z,11.70
2018-04-01T13:57:44.081Z,12.37
2018-04-01T14:02:17.626Z,12.23
2018-04-01T14:06:50.512Z,11.40
2018-04-01T14:11:23.264Z,12.47
2018-04-01T14:15:56.037Z,11.40
2018-04-01T14:20:28.837Z,10.83
2018-04-01T14:25:01.744Z,11.47
2018-04-01T14:29:34.496Z,12.30
2018-04-01T14:34:07.275Z,11.83
2018-04-01T14:38:40.762Z,10.80
2018-04-01T14:43:13.680Z,8.10
2018-04-01T14:47:47.197Z,8.87
2018-04-01T14:52:20.737Z,13.03
2018-04-01T14:56:53.463Z,7.57
2018-04-01T15:01:26.448Z,12.90
2018-04-01T15:05:59.220Z,10.90
2018-04-01T15:10:32.706Z,10.73
2018-04-01T15:15:06.476Z,12.93
2018-04-01T15:19:39.264Z,11.00
2018-04-01T15:24:12.054Z,12.60
2018-04-01T15:28:44.937Z,7.90
2018-04-01T15:33:18.522Z,11.30
2018-04-01T15:37:52.018Z,11.83
2018-04-01T15:42:24.808Z,9.73
2018-04-01T15:46:57.976Z,11.23
2018-04-01T15:51:30.815Z,11.83
2018-04-01T15:56:03.600Z,14.47
2018-04-01T16:00:36.368Z,17.17
2018-04-01T16:05:09.179Z,11.97
2018-04-01T16:09:41.972Z,13.37
2018-04-01T16:14:14.810Z,14.67
2018-04-01T16:18:47.558Z,14.33
2018-04-01T16:23:20.686Z,14.60
2018-04-01T16:27:53.686Z,14.93
2018-04-01T16:32:26.454Z,16.27
2018-04-01T16:37:00.208Z,14.43
2018-04-01T16:41:32.996Z,14.53
2018-04-01T16:46:06.072Z,16.33
2018-04-01T16:50:39.730Z,15.57
2018-04-01T16:55:12.509Z,16.10
2018-04-01T16:59:45.499Z,17.13
2018-04-01T17:04:18.285Z,18.07
2018-04-01T17:08:52.536Z,16.67
2018-04-01T17:13:25.300Z,17.30
2018-04-01T17:17:58.360Z,18.87
2018-04-01T17:22:31.114Z,17.40
2018-04-01T17:27:04.656Z,18.17
2018-04-01T17:31:37.661Z,19.20
2018-04-01T17:36:10.449Z,18.70
2018-04-01T17:40:43.553Z,18.87
2018-04-01T17:45:16.339Z,18.60
2018-04-01T17:49:49.104Z,18.23
2018-04-01T17:54:22.738Z,18.63
2018-04-01T17:58:56.284Z,20.03
2018-04-01T18:03:29.064Z,20.13
2018-04-01T18:08:04.736Z,18.23
2018-04-01T18:12:37.612Z,30.67
2018-04-01T18:17:11.154Z,28.83
2018-04-01T18:21:44.059Z,31.23
2018-04-01T18:26:16.834Z,25.53
2018-04-01T18:30:50.452Z,41.87
2018-04-01T18:35:23.468Z,29.67
2018-04-01T18:39:56.261Z,39.13
2018-04-01T18:44:30.975Z,47.63
2018-04-01T18:49:04.505Z,63.77
2018-04-01T18:53:38.064Z,72.53
2018-04-01T18:58:10.834Z,39.70
2018-04-01T19:02:43.810Z,27.67
2018-04-01T19:07:17.345Z,33.20
2018-04-01T19:11:50.099Z,22.53
2018-04-01T19:16:23.771Z,19.40
2018-04-01T19:20:57.663Z,23.93
2018-04-01T19:25:31.817Z,17.87
2018-04-01T19:30:06.245Z,17.70
2018-04-01T19:34:39.477Z,21.27
2018-04-01T19:39:12.944Z,21.23
2018-04-01T19:43:47.796Z,19.67
2018-04-01T19:48:22.430Z,25.33
2018-04-01T19:52:56.689Z,27.73
2018-04-01T19:57:30.997Z,20.17
2018-04-01T20:02:05.959Z,27.43
2018-04-01T20:06:39.360Z,22.80
2018-04-01T20:11:14.101Z,24.27
2018-04-01T20:15:47.668Z,25.83
2018-04-01T20:20:20.937Z,25.10
2018-04-01T20:24:55.377Z,28.47
2018-04-01T20:29:29.410Z,30.77
2018-04-01T20:34:03.634Z,50.23
2018-04-01T20:38:38.145Z,45.57
2018-04-01T20:43:12.401Z,28.47
2018-04-01T20:47:45.896Z,24.80
2018-04-01T20:52:20.179Z,30.97
2018-04-01T20:56:53.467Z,22.47
2018-04-01T21:01:26.840Z,19.03
2018-04-01T21:06:01.071Z,22.43
2018-04-01T21:10:35.215Z,27.60
2018-04-01T21:15:08.737Z,22.47
2018-04-01T21:19:42.131Z,23.10
2018-04-01T21:24:27.868Z,25.80
2018-04-01T21:29:01.994Z,30.50
2018-04-01T21:33:36.234Z,27.67
2018-04-01T21:38:10.928Z,32.47
2018-04-01T21:42:45.105Z,32.10
2018-04-01T21:47:18.431Z,32.37
2018-04-01T21:51:51.667Z,28.93
2018-04-01T21:56:24.946Z,38.30
2018-04-01T22:00:58.259Z,58.20
2018-04-01T22:05:32.331Z,51.37
2018-04-01T22:10:06.355Z,35.17
2018-04-01T22:14:40.558Z,45.17
2018-04-01T22:19:14.249Z,31.90
2018-04-01T22:23:47.820Z,36.40
2018-04-01T22:28:22.610Z,52.30
2018-04-01T22:32:56.575Z,70.77
2018-04-01T22:37:31.568Z,47.57
2018-04-01T22:42:05.671Z,60.17
2018-04-01T22:46:39.384Z,24.23
2018-04-01T22:51:12.904Z,23.07
2018-04-01T22:55:46.321Z,34.90
2018-04-01T23:00:19.578Z,41.77
2018-04-01T23:04:53.537Z,32.43
2018-04-01T23:09:27.556Z,26.60
2018-04-01T23:14:01.689Z,30.57
2018-04-01T23:18:35.704Z,25.50
2018-04-01T23:23:10.140Z,24.90
2018-04-01T23:27:44.552Z,25.97
2018-04-01T23:32:17.809Z,24.30
2018-04-01T23:36:51.097Z,29.97
2018-04-01T23:41:25.266Z,26.60
2018-04-01T23:45:58.845Z,31.30
2018-04-01T23:50:32.870Z,46.97
2018-04-01T23:55:06.885Z,35.53
2018-04-01T23:59:40.257Z,34.20
